Disclaimer

Please do not use the information listed here in-flight or in-navigation, as they are not provided to us by the airports but are provided by volunteers, so they might be outdated.

Search


Regions


Airport information page

Radio informations:
Tower (TWR) - 128.0 MHz
Ground (GND) - 119.0 MHz
Automatic Terminal Information Service (ATIS) - 135.1 MHz
RADAR - 120.4 MHz

Airport informations:
Latitude: 51° 33' 54.00" N
Longitude: 046° 02' 48.00" E
Elevation: 499 feet - 152 meters
Operating hours: 24 hour operations
Operating agency: Civil government, landing fees and diplomatic clearance may be required
Timezone: UTC+3(+4DT) - Last Sunday in March to last Sunday in October
Fuel: N/A

Runway information:
12/30 - 7284 x 138 feet< - >2220 x 42 meters

Recent METARs:
UWSS 202300Z 30004MPS 9999 BKN033 M00/M02 Q1019 R30/010095 NOSIG RMK QFE750
UWSS 210000Z 31004MPS 9999 BKN032 M00/M03 Q1018 R30/010095 NOSIG RMK QFE750
UWSS 210000Z 31004MPS 9999 BKN032 M00/M03 Q1018 R30/010095 NOSIG RMK QFE750

Airport on the map: